Time;durP1;ratioP1;P1;durP2;ratioP2;P2;SDS_P1;SDS_P2;PMS_P1;PMS_P2;Temp;Humidity;BMP_temperature;BMP_pressure;BME280_temperature;BME280_humidity;BME280_pressure;Samples;Min_cycle;Max_cycle;Signal;HPM_P1;HPM_P2
2021/06/12 00:00:13;;;;;;;1.50;0.96;;;;;;;16.60;83.35;99585.84;2027781;79;20310;-79
2021/06/12 00:03:15;;;;;;;;;;;;;;;16.61;83.39;99592.81;2029683;77;22514;-79
2021/06/12 00:06:18;;;;;;;1.26;0.80;;;;;;;16.60;83.57;99587.59;2029115;79;20680;-79
2021/06/12 00:09:21;;;;;;;2.63;0.90;;;;;;;16.59;83.61;99591.13;2030990;79;20276;-78
2021/06/12 00:12:23;;;;;;;0.85;0.80;;;;;;;16.55;83.50;99590.34;2031036;79;20174;-78
2021/06/12 00:15:28;;;;;;;1.24;0.90;;;;;;;16.49;83.54;99587.00;2026998;77;20456;-78
2021/06/12 00:18:30;;;;;;;1.59;1.06;;;;;;;16.42;83.54;99595.94;2022014;80;20172;-78
2021/06/12 00:21:36;;;;;;;1.64;0.76;;;;;;;16.42;83.77;99603.78;2023280;80;20606;-78
2021/06/12 00:24:39;;;;;;;1.02;0.60;;;;;;;16.39;83.91;99598.63;2023670;80;20228;-78
2021/06/12 00:27:42;;;;;;;4.63;0.70;;;;;;;16.38;83.80;99584.66;2023231;80;20183;-79
2021/06/12 00:30:44;;;;;;;2.46;0.68;;;;;;;16.31;84.11;99594.44;2024219;77;21804;-78
2021/06/12 00:33:47;;;;;;;1.29;0.61;;;;;;;16.33;84.21;99592.63;2028862;79;21099;-78
2021/06/12 00:36:51;;;;;;;2.38;0.73;;;;;;;16.32;84.58;99595.28;2029344;79;20224;-78
2021/06/12 00:39:54;;;;;;;2.65;0.70;;;;;;;16.28;84.41;99596.25;2028979;79;20194;-79
2021/06/12 00:42:57;;;;;;;1.46;0.65;;;;;;;16.28;84.13;99604.13;2029847;79;20251;-79
2021/06/12 00:46:02;;;;;;;2.88;0.60;;;;;;;16.26;84.59;99598.94;2027824;77;21163;-78
2021/06/12 00:49:05;;;;;;;1.55;0.59;;;;;;;16.25;84.65;99602.44;2024747;80;20179;-78
2021/06/12 00:52:08;;;;;;;0.63;0.61;;;;;;;16.21;84.68;99598.19;2024257;80;20196;-79
2021/06/12 00:55:14;;;;;;;0.70;0.70;;;;;;;16.21;84.82;99607.81;2028127;80;20684;-78
2021/06/12 00:58:17;;;;;;;2.24;0.88;;;;;;;16.19;85.07;99604.38;2023657;80;20192;-78
2021/06/12 01:01:21;;;;;;;1.19;0.93;;;;;;;16.19;85.25;99605.22;2024814;77;22649;-79
2021/06/12 01:04:23;;;;;;;0.80;0.70;;;;;;;16.19;85.13;99604.38;2028985;79;21007;-79
2021/06/12 01:07:26;;;;;;;2.17;0.80;;;;;;;16.16;84.97;99605.31;2033097;79;20188;-79
2021/06/12 01:10:29;;;;;;;1.36;0.70;;;;;;;16.11;85.07;99596.66;2029471;79;20190;-78
2021/06/12 01:14:08;;;;;;;1.06;0.91;;;;;;;16.10;85.19;99591.47;2031257;79;20174;-80
2021/06/12 01:17:30;;;;;;;1.64;0.60;;;;;;;16.06;85.44;99584.59;2022757;78;26438;-78
2021/06/12 01:21:10;;;;;;;5.40;0.63;;;;;;;16.03;85.55;99577.66;2023727;80;20251;-78
2021/06/12 01:24:18;;;;;;;1.15;0.73;;;;;;;16.01;85.54;99579.47;2023318;80;20191;-79
2021/06/12 01:27:23;;;;;;;3.46;0.71;;;;;;;15.97;85.62;99576.03;2023196;80;20191;-79
2021/06/12 01:30:32;;;;;;;0.94;0.70;;;;;;;15.98;85.83;99579.53;2023800;77;25708;-79
2021/06/12 01:33:38;;;;;;;4.96;0.90;;;;;;;15.97;85.91;99581.25;2027812;79;20216;-78
2021/06/12 01:36:42;;;;;;;1.46;0.71;;;;;;;15.96;85.68;99578.69;2028296;80;20186;-78
2021/06/12 01:39:47;;;;;;;3.09;0.90;;;;;;;15.95;85.68;99580.44;2027848;80;20170;-77
2021/06/12 01:42:50;;;;;;;1.25;0.74;;;;;;;15.92;86.05;99585.75;2027112;79;20238;-77
2021/06/12 01:45:53;;;;;;;2.16;0.69;;;;;;;15.93;86.08;99574.38;2026844;78;21135;-78
2021/06/12 01:48:59;;;;;;;2.75;0.94;;;;;;;15.92;85.92;99575.28;2027421;80;20341;-78
2021/06/12 01:52:03;;;;;;;1.52;0.86;;;;;;;15.88;85.79;99580.63;2028028;79;20208;-78
2021/06/12 01:55:07;;;;;;;0.71;0.69;;;;;;;15.85;85.92;99585.94;2031290;79;20504;-78
2021/06/12 01:58:20;;;;;;;4.14;1.00;;;;;;;15.82;85.91;99581.66;2028306;79;20288;-78
2021/06/12 02:01:24;;;;;;;1.00;0.70;;;;;;;15.79;85.76;99592.16;2025858;77;21758;-78
2021/06/12 02:04:27;;;;;;;2.24;0.90;;;;;;;15.76;85.77;99588.75;2024498;80;20186;-78
2021/06/12 02:07:31;;;;;;;1.45;0.88;;;;;;;15.78;85.44;99586.97;2024882;80;20194;-78
2021/06/12 02:10:34;;;;;;;1.66;0.80;;;;;;;15.72;85.63;99585.34;2024685;80;20552;-78
2021/06/12 02:13:40;;;;;;;1.70;0.77;;;;;;;15.68;85.94;99583.69;2023955;80;20175;-78
2021/06/12 02:16:43;;;;;;;1.59;0.86;;;;;;;15.69;86.38;99573.19;2026819;77;22816;-78
2021/06/12 02:19:46;;;;;;;0.71;0.71;;;;;;;15.72;86.34;99569.63;2030469;79;20543;-78
2021/06/12 02:22:50;;;;;;;2.29;0.70;;;;;;;15.63;86.21;99578.56;2030058;79;20231;-79
2021/06/12 02:25:53;;;;;;;0.98;0.77;;;;;;;15.61;86.34;99582.09;2029512;79;20251;-79
2021/06/12 02:28:57;;;;;;;1.10;0.60;;;;;;;15.60;86.55;99581.22;2030434;79;20171;-79
2021/06/12 02:32:13;;;;;;;2.35;0.80;;;;;;;15.56;86.43;99576.06;2029130;79;20193;-79
2021/06/12 02:35:16;;;;;;;1.02;0.69;;;;;;;15.53;86.54;99568.28;2031123;79;20224;-77
2021/06/12 02:38:19;;;;;;;2.80;0.68;;;;;;;15.51;86.67;99575.31;2031335;79;20263;-78
2021/06/12 02:41:22;;;;;;;0.99;0.60;;;;;;;15.44;86.42;99569.38;2029853;79;20579;-77
2021/06/12 02:44:25;;;;;;;1.77;0.61;;;;;;;15.42;86.49;99573.75;2029494;79;20163;-78
2021/06/12 02:47:30;;;;;;;2.80;0.70;;;;;;;15.39;86.78;99573.81;2024435;78;21446;-79
2021/06/12 02:50:35;;;;;;;1.23;0.70;;;;;;;15.40;86.89;99572.91;2024464;80;20179;-79
2021/06/12 02:53:42;;;;;;;1.42;0.60;;;;;;;15.34;86.99;99573.91;2026468;80;20202;-79
2021/06/12 02:56:45;;;;;;;0.71;0.70;;;;;;;15.34;87.05;99583.53;2024236;80;20197;-78
2021/06/12 02:59:50;;;;;;;0.94;0.60;;;;;;;15.29;87.01;99595.84;2024382;80;20219;-78
2021/06/12 03:02:54;;;;;;;3.03;0.60;;;;;;;15.28;87.13;99604.59;2028047;77;21429;-78
2021/06/12 03:05:58;;;;;;;0.60;0.60;;;;;;;15.29;87.08;99604.56;2030015;79;20235;-79
2021/06/12 03:09:02;;;;;;;3.64;0.60;;;;;;;15.25;87.00;99610.72;2029216;79;20289;-79
2021/06/12 03:12:07;;;;;;;2.69;0.90;;;;;;;15.21;87.12;99602.97;2028316;79;20907;-79
2021/06/12 03:15:10;;;;;;;0.88;0.63;;;;;;;15.20;87.15;99614.31;2028935;79;20155;-79
2021/06/12 03:18:13;;;;;;;0.71;0.55;;;;;;;15.16;87.24;99604.81;2023653;77;25873;-80
2021/06/12 03:21:21;;;;;;;1.74;0.70;;;;;;;15.15;87.27;99605.72;2027393;80;20175;-79
2021/06/12 03:24:24;;;;;;;1.20;0.70;;;;;;;15.14;86.99;99611.84;2023266;80;20204;-79
2021/06/12 03:27:28;;;;;;;1.56;0.77;;;;;;;15.07;86.96;99611.06;2023986;80;20233;-79
2021/06/12 03:30:31;;;;;;;1.96;0.74;;;;;;;15.06;87.10;99620.69;2022316;77;23367;-79
2021/06/12 03:33:33;;;;;;;1.21;0.70;;;;;;;15.05;87.21;99625.94;2023783;80;20252;-79
2021/06/12 03:36:37;;;;;;;0.82;0.71;;;;;;;15.01;87.33;99619.91;2022913;80;20301;-79
2021/06/12 03:39:40;;;;;;;0.80;0.60;;;;;;;14.98;87.36;99616.50;2024205;80;20159;-79
2021/06/12 03:42:44;;;;;;;2.39;0.80;;;;;;;14.91;87.25;99615.75;2022843;80;21009;-80
2021/06/12 03:45:47;;;;;;;3.94;1.29;;;;;;;14.94;87.56;99615.69;2023633;77;54259;-79
2021/06/12 03:48:50;;;;;;;1.63;0.89;;;;;;;14.97;87.67;99617.38;2028629;79;20749;-79
2021/06/12 03:51:54;;;;;;;3.99;0.84;;;;;;;14.94;87.55;99623.53;2028854;79;20202;-79
2021/06/12 03:54:57;;;;;;;1.34;0.90;;;;;;;14.95;87.58;99625.25;2028443;79;20174;-78
2021/06/12 03:58:00;;;;;;;1.90;0.91;;;;;;;14.94;87.91;99626.16;2028428;79;20220;-79
2021/06/12 04:01:03;;;;;;;1.35;0.80;;;;;;;15.00;87.80;99631.25;2026071;77;21199;-79
2021/06/12 04:04:06;;;;;;;1.51;0.90;;;;;;;15.01;87.74;99626.88;2023521;80;20586;-79
2021/06/12 04:07:09;;;;;;;1.13;1.00;;;;;;;15.02;87.56;99629.47;2023340;80;20807;-79
2021/06/12 04:10:12;;;;;;;2.75;0.77;;;;;;;15.04;87.61;99640.75;2022910;80;20187;-79
2021/06/12 04:13:14;;;;;;;1.14;0.84;;;;;;;15.05;87.46;99636.41;2022921;80;20228;-79
2021/06/12 04:16:17;;;;;;;2.44;0.75;;;;;;;15.04;87.47;99637.28;2025162;78;20605;-79
2021/06/12 04:19:20;;;;;;;1.33;0.88;;;;;;;15.07;87.70;99634.59;2032290;79;20277;-79
2021/06/12 04:22:22;;;;;;;1.06;0.68;;;;;;;15.09;87.50;99638.09;2028732;79;20226;-79
2021/06/12 04:25:25;;;;;;;4.56;0.76;;;;;;;15.12;87.51;99635.41;2028927;79;20199;-79
2021/06/12 04:28:27;;;;;;;1.52;0.79;;;;;;;15.18;87.54;99631.81;2029552;79;20186;-79
2021/06/12 04:31:30;;;;;;;3.76;0.80;;;;;;;15.25;87.60;99630.78;2027946;77;20198;-80
2021/06/12 04:34:33;;;;;;;0.75;0.70;;;;;;;15.31;87.49;99635.91;2028858;79;20174;-80
2021/06/12 04:37:35;;;;;;;2.97;0.74;;;;;;;15.43;87.29;99636.50;2030094;79;20747;-79
2021/06/12 04:40:38;;;;;;;1.94;0.85;;;;;;;15.56;87.24;99634.50;2029385;79;20158;-79
2021/06/12 04:43:41;;;;;;;2.22;0.70;;;;;;;15.71;86.96;99636.00;2029985;79;20746;-79
2021/06/12 04:46:43;;;;;;;1.59;1.13;;;;;;;15.84;86.54;99642.69;2025790;78;21978;-79
2021/06/12 04:49:48;;;;;;;6.29;0.90;;;;;;;15.96;86.13;99644.16;2025855;80;20605;-79
2021/06/12 04:52:51;;;;;;;2.28;0.69;;;;;;;16.12;85.74;99647.31;2024288;80;20469;-80
2021/06/12 04:55:54;;;;;;;4.41;0.70;;;;;;;16.26;85.31;99655.72;2026724;80;20202;-79
2021/06/12 04:58:57;;;;;;;0.88;0.70;;;;;;;16.43;84.63;99657.94;2025766;80;20195;-79
2021/06/12 05:02:00;;;;;;;0.81;0.76;;;;;;;16.58;84.01;99668.91;2028781;77;21101;-79
2021/06/12 05:05:02;;;;;;;1.29;0.82;;;;;;;16.77;83.35;99679.00;2033068;79;20210;-81
2021/06/12 05:08:05;;;;;;;1.27;0.66;;;;;;;16.94;82.76;99671.56;2032042;80;20607;-80
2021/06/12 05:11:08;;;;;;;1.13;0.60;;;;;;;17.19;81.91;99677.00;2031563;80;20178;-80
2021/06/12 05:14:12;;;;;;;0.93;0.70;;;;;;;17.34;81.20;99666.09;2032906;80;21423;-80
2021/06/12 05:17:17;;;;;;;1.35;0.80;;;;;;;17.42;81.02;99663.28;2025667;77;20203;-80
2021/06/12 05:20:21;;;;;;;1.36;0.70;;;;;;;17.62;79.97;99662.72;2028406;80;20171;-80
2021/06/12 05:23:24;;;;;;;0.74;0.70;;;;;;;17.79;79.37;99666.59;2028803;80;20640;-80
2021/06/12 05:26:29;;;;;;;2.59;0.59;;;;;;;18.16;78.47;99672.53;2030371;80;20153;-84
2021/06/12 05:29:34;;;;;;;0.99;0.63;;;;;;;18.39;77.89;99670.03;2023956;80;20172;-82
2021/06/12 05:37:04;;;;;;;1.05;0.54;;;;;;;18.92;76.15;99673.56;2022312;70;20174;-81
2021/06/12 05:40:09;;;;;;;5.06;0.74;;;;;;;19.37;74.34;99674.63;2001823;81;20170;-78
2021/06/12 05:43:12;;;;;;;2.17;0.70;;;;;;;19.84;72.91;99678.19;2010955;80;20210;-79
2021/06/12 05:46:15;;;;;;;5.91;0.99;;;;;;;20.40;70.95;99678.63;2009242;78;25524;-78
2021/06/12 05:49:19;;;;;;;1.56;0.59;;;;;;;20.73;69.87;99678.22;2009045;80;20196;-78
2021/06/12 05:52:21;;;;;;;3.08;0.90;;;;;;;21.10;68.47;99674.91;2009825;80;20191;-75
2021/06/12 05:55:24;;;;;;;1.94;0.86;;;;;;;21.49;67.22;99672.31;2009292;80;20209;-75
2021/06/12 05:58:26;;;;;;;0.80;0.70;;;;;;;21.96;65.69;99669.31;2007888;80;20741;-73
2021/06/12 06:01:29;;;;;;;2.49;0.79;;;;;;;22.37;63.47;99662.09;2009416;77;20244;-74
2021/06/12 06:04:32;;;;;;;3.31;0.73;;;;;;;22.44;62.79;99666.16;2013800;80;20663;-75
2021/06/12 06:07:35;;;;;;;1.26;0.80;;;;;;;22.48;62.95;99666.88;2013734;80;20184;-74
2021/06/12 06:10:37;;;;;;;1.49;0.65;;;;;;;22.75;62.57;99676.09;2012781;80;20204;-74
2021/06/12 06:13:45;;;;;;;1.61;0.60;;;;;;;23.06;61.80;99670.16;2010910;80;20161;-74
2021/06/12 06:16:48;;;;;;;1.84;0.70;;;;;;;23.29;60.41;99678.69;2007919;78;21653;-74
2021/06/12 06:19:51;;;;;;;3.92;0.64;;;;;;;23.78;59.39;99683.16;2005900;80;20731;-74
2021/06/12 06:22:53;;;;;;;0.99;0.60;;;;;;;24.36;57.55;99679.09;2006391;80;20185;-74
2021/06/12 06:25:57;;;;;;;5.95;0.86;;;;;;;24.81;55.81;99677.44;2006398;80;20280;-79
2021/06/12 06:28:59;;;;;;;2.08;1.00;;;;;;;24.98;55.20;99682.63;2007973;80;20165;-76
2021/06/12 06:32:03;;;;;;;2.95;0.71;;;;;;;24.89;55.03;99686.66;2009286;78;20258;-74
2021/06/12 06:35:06;;;;;;;1.60;0.75;;;;;;;25.24;54.43;99687.25;2010621;80;20184;-74
2021/06/12 06:38:09;;;;;;;2.38;0.60;;;;;;;25.06;54.84;99693.66;2011573;80;20172;-74
2021/06/12 06:41:12;;;;;;;3.21;0.70;;;;;;;25.05;54.81;99696.41;2010300;80;20550;-74
2021/06/12 06:44:14;;;;;;;4.61;0.88;;;;;;;25.02;54.77;99702.78;2010959;80;20164;-74
2021/06/12 06:47:17;;;;;;;5.59;0.68;;;;;;;25.00;54.40;99704.66;2006176;78;21547;-74
2021/06/12 06:50:20;;;;;;;7.21;0.90;;;;;;;25.15;54.90;99714.41;2005510;80;20239;-73
2021/06/12 06:53:23;;;;;;;9.96;0.88;;;;;;;25.27;54.65;99710.13;2005810;80;20803;-74
2021/06/12 06:56:27;;;;;;;13.48;1.52;;;;;;;25.69;54.18;99719.16;2005233;80;20724;-76
2021/06/12 06:59:30;;;;;;;8.70;0.90;;;;;;;25.96;53.13;99717.44;2005917;80;20204;-74
2021/06/12 07:02:33;;;;;;;4.05;1.30;;;;;;;26.13;52.23;99717.25;2001527;78;21448;-78
2021/06/12 07:05:36;;;;;;;8.19;1.21;;;;;;;26.11;51.91;99713.81;2000863;81;20194;-75
2021/06/12 07:08:39;;;;;;;9.35;0.91;;;;;;;25.99;51.49;99724.38;2000915;81;20186;-74
2021/06/12 07:11:42;;;;;;;3.79;0.71;;;;;;;26.30;51.48;99720.66;2000965;81;20182;-74
2021/06/12 07:14:44;;;;;;;6.29;0.69;;;;;;;26.52;50.54;99717.47;2000822;81;20225;-75
2021/06/12 07:17:47;;;;;;;5.71;0.70;;;;;;;26.65;49.95;99721.06;1999959;78;21856;-74
2021/06/12 07:20:51;;;;;;;2.50;0.82;;;;;;;26.73;49.97;99719.59;2001223;81;20205;-75
2021/06/12 07:23:54;;;;;;;3.78;0.50;;;;;;;26.52;49.80;99714.81;2000977;81;20227;-75
2021/06/12 07:26:56;;;;;;;3.24;0.40;;;;;;;26.04;50.48;99701.88;2000444;81;20235;-75
2021/06/12 07:29:59;;;;;;;1.04;0.35;;;;;;;25.55;51.36;99699.56;2000687;81;20387;-74
2021/06/12 07:33:02;;;;;;;0.30;0.30;;;;;;;25.72;51.50;99703.88;2000449;78;20509;-75
2021/06/12 07:36:05;;;;;;;3.06;0.46;;;;;;;25.97;48.63;99703.19;2002165;81;20263;-77
2021/06/12 07:39:08;;;;;;;0.55;0.30;;;;;;;26.07;47.70;99708.81;2002749;81;20635;-73
2021/06/12 07:42:11;;;;;;;1.90;0.30;;;;;;;26.28;47.85;99702.09;2001849;81;20239;-75
2021/06/12 07:45:14;;;;;;;1.96;0.30;;;;;;;26.35;48.06;99703.44;2000108;81;20189;-75
2021/06/12 07:48:17;;;;;;;2.21;0.30;;;;;;;26.56;47.68;99703.00;1995686;78;21574;-76
2021/06/12 07:51:20;;;;;;;0.56;0.36;;;;;;;26.71;47.32;99710.00;1998893;81;20505;-77
2021/06/12 07:54:23;;;;;;;1.38;0.40;;;;;;;26.62;46.45;99707.94;1996560;81;20200;-76
2021/06/12 07:57:26;;;;;;;0.59;0.40;;;;;;;26.64;46.08;99698.91;1995713;81;20193;-75
2021/06/12 08:00:29;;;;;;;1.85;0.43;;;;;;;26.42;47.81;99691.47;1995405;78;20510;-75
2021/06/12 08:03:32;;;;;;;4.15;0.50;;;;;;;26.18;48.21;99700.97;2001257;80;20205;-74
2021/06/12 08:06:34;;;;;;;1.60;0.40;;;;;;;26.03;48.87;99692.19;2000963;81;20231;-76
2021/06/12 08:09:37;;;;;;;1.70;0.30;;;;;;;26.05;47.09;99690.28;2001282;81;20193;-71
2021/06/12 08:12:40;;;;;;;0.60;0.30;;;;;;;26.22;46.67;99685.69;2001105;81;20275;-76
2021/06/12 08:15:43;;;;;;;9.76;0.51;;;;;;;26.45;46.69;99682.41;1998675;79;20190;-76
2021/06/12 08:18:46;;;;;;;1.20;0.40;;;;;;;26.85;46.35;99677.97;1996008;81;20166;-71
2021/06/12 08:21:48;;;;;;;2.21;0.30;;;;;;;27.09;44.71;99683.47;1996989;81;20567;-73
2021/06/12 08:24:51;;;;;;;0.96;0.31;;;;;;;26.95;44.11;99684.41;1995605;81;20276;-72
2021/06/12 08:27:54;;;;;;;2.10;0.30;;;;;;;26.85;45.12;99693.94;1995741;81;20182;-73
2021/06/12 08:30:58;;;;;;;4.07;0.36;;;;;;;26.84;44.53;99694.91;1988053;80;820557;-74
2021/06/12 08:34:02;;;;;;;1.90;0.40;;;;;;;27.08;43.84;99685.28;2000351;81;20174;-75
2021/06/12 08:37:05;;;;;;;4.18;0.68;;;;;;;27.26;44.56;99682.31;1999799;81;20195;-74
2021/06/12 08:40:08;;;;;;;3.63;0.43;;;;;;;27.52;44.21;99686.72;2000854;81;20675;-74
2021/06/12 08:43:11;;;;;;;1.08;0.30;;;;;;;27.71;44.38;99683.66;2000058;81;20239;-73
2021/06/12 08:46:18;;;;;;;3.60;0.30;;;;;;;27.61;43.37;99691.41;1999336;81;20585;-76
2021/06/12 08:49:21;;;;;;;0.22;0.19;;;;;;;27.20;44.41;99691.59;2000773;81;20193;-73
2021/06/12 08:52:26;;;;;;;3.65;0.38;;;;;;;27.19;43.78;99694.38;2000062;81;20202;-73
2021/06/12 08:55:29;;;;;;;0.51;0.30;;;;;;;27.30;43.63;99694.50;1999446;81;21076;-74
2021/06/12 08:58:31;;;;;;;4.47;0.40;;;;;;;27.34;43.09;99693.34;2000476;81;20177;-75
2021/06/12 09:01:34;;;;;;;1.90;0.40;;;;;;;27.35;43.97;99689.72;1999506;78;22627;-74
2021/06/12 09:04:43;;;;;;;0.76;0.38;;;;;;;27.64;44.26;99682.38;2000453;81;20185;-74
2021/06/12 09:07:46;;;;;;;1.67;0.30;;;;;;;27.90;43.01;99684.06;1999874;81;21056;-75
2021/06/12 09:10:58;;;;;;;0.30;0.20;;;;;;;27.85;43.16;99674.69;1999987;81;20186;-74
2021/06/12 09:14:02;;;;;;;3.19;0.22;;;;;;;27.89;42.44;99693.03;2000376;81;20193;-74
2021/06/12 09:17:04;;;;;;;1.08;0.10;;;;;;;27.65;42.32;99714.31;1995628;78;21100;-74
2021/06/12 09:20:09;;;;;;;0.61;0.15;;;;;;;27.23;40.80;99698.53;1994654;81;20840;-74
2021/06/12 09:23:16;;;;;;;1.64;0.73;;;;;;;27.18;42.00;99711.34;1994589;81;20186;-74
2021/06/12 09:26:21;;;;;;;3.70;0.37;;;;;;;27.14;41.99;99699.19;1995058;81;20553;-74
2021/06/12 09:29:38;;;;;;;6.70;0.21;;;;;;;27.23;41.90;99702.06;1995466;81;20202;-74
2021/06/12 09:32:45;;;;;;;8.32;0.30;;;;;;;27.39;43.06;99710.72;2000134;78;22094;-76
2021/06/12 09:35:48;;;;;;;5.84;0.30;;;;;;;27.52;42.64;99721.41;2001771;81;20205;-74
2021/06/12 09:38:50;;;;;;;2.99;0.30;;;;;;;27.75;42.27;99710.97;2002121;81;20247;-75
2021/06/12 09:41:55;;;;;;;7.39;0.31;;;;;;;27.91;41.63;99706.28;2001649;81;20200;-75
2021/06/12 09:45:05;;;;;;;0.90;0.19;;;;;;;28.11;40.58;99711.03;2002011;81;20225;-76
2021/06/12 09:48:17;;;;;;;0.74;0.24;;;;;;;28.11;40.93;99716.38;2001671;79;20403;-76
2021/06/12 09:51:20;;;;;;;0.57;0.10;;;;;;;28.18;40.54;99712.28;2001462;81;20256;-84
2021/06/12 09:54:36;;;;;;;0.20;0.10;;;;;;;28.18;39.84;99711.44;2001067;81;20563;-75
2021/06/12 09:57:47;;;;;;;1.29;0.10;;;;;;;27.98;39.96;99705.72;2001503;81;20182;-71
2021/06/12 10:00:49;;;;;;;1.84;0.89;;;;;;;27.85;40.32;99720.91;1999792;79;23403;-78
2021/06/12 10:04:12;;;;;;;0.25;0.10;;;;;;;27.80;40.47;99719.50;1995614;81;20179;-72
2021/06/12 10:07:15;;;;;;;0.59;0.20;;;;;;;27.72;41.24;99720.06;1995844;81;20619;-73
2021/06/12 10:10:18;;;;;;;0.88;0.20;;;;;;;27.80;41.57;99719.50;1995475;81;20162;-77
2021/06/12 10:13:22;;;;;;;0.52;0.10;;;;;;;27.82;41.68;99715.75;1996630;81;20680;-77
2021/06/12 10:16:25;;;;;;;0.28;0.11;;;;;;;27.90;40.53;99715.25;1995802;78;20680;-78
2021/06/12 10:19:30;;;;;;;1.00;0.10;;;;;;;27.73;40.13;99729.78;1996973;81;20268;-78
2021/06/12 10:22:32;;;;;;;1.69;0.13;;;;;;;27.39;38.71;99715.22;1996609;81;20188;-77
2021/06/12 10:25:35;;;;;;;2.88;0.10;;;;;;;27.46;41.51;99734.31;1996488;81;20288;-77
2021/06/12 10:28:38;;;;;;;0.98;0.10;;;;;;;27.52;39.66;99720.56;1995605;81;20233;-77
2021/06/12 10:31:42;;;;;;;0.90;0.10;;;;;;;27.88;41.81;99714.50;1997549;78;20498;-77
2021/06/12 10:34:49;;;;;;;0.76;0.10;;;;;;;28.22;40.18;99721.81;1999987;81;20186;-77
2021/06/12 10:38:13;;;;;;;2.69;0.09;;;;;;;28.41;39.39;99709.81;2000223;81;20251;-72
2021/06/12 10:41:25;;;;;;;1.56;0.10;;;;;;;28.44;39.27;99709.59;2000481;81;20182;-80
2021/06/12 10:44:28;;;;;;;1.35;0.10;;;;;;;28.55;40.54;99710.53;2000138;81;20781;-78
2021/06/12 10:47:46;;;;;;;2.76;0.10;;;;;;;28.74;39.07;99707.34;1999461;78;21424;-77
2021/06/12 10:50:49;;;;;;;0.86;0.10;;;;;;;28.81;38.86;99705.06;1999960;81;20198;-76
2021/06/12 10:57:17;;;;;;;0.59;0.10;;;;;;;29.00;38.25;99720.59;2001440;81;20194;-78
2021/06/12 11:00:19;;;;;;;2.88;0.10;;;;;;;28.63;38.04;99712.63;1996214;81;20667;-77
2021/06/12 11:07:25;;;;;;;0.43;0.10;;;;;;;28.73;37.80;99707.47;1995721;81;21275;-79
2021/06/12 11:10:28;;;;;;;0.94;0.10;;;;;;;28.87;38.79;99704.63;1996729;81;20615;-78
2021/06/12 11:13:30;;;;;;;3.33;0.10;;;;;;;28.91;37.56;99707.94;1994743;81;20204;-78
2021/06/12 11:16:33;;;;;;;0.29;0.10;;;;;;;28.93;36.61;99711.34;1997103;78;20314;-80
2021/06/12 11:19:44;;;;;;;0.29;0.00;;;;;;;28.99;36.03;99717.06;2000882;81;20182;-77
2021/06/12 11:22:56;;;;;;;1.94;0.10;;;;;;;29.11;35.92;99721.50;2000804;81;20190;-77
2021/06/12 11:25:59;;;;;;;16.29;0.47;;;;;;;29.21;36.32;99713.63;2000716;81;20668;-78
2021/06/12 11:29:10;;;;;;;9.56;0.60;;;;;;;29.22;35.42;99709.13;2000379;81;20209;-76
2021/06/12 11:32:28;;;;;;;2.04;0.39;;;;;;;29.33;36.89;99711.84;1994996;78;24515;-78
2021/06/12 11:35:53;;;;;;;6.71;0.50;;;;;;;29.47;35.54;99707.16;1994682;81;20198;-81
2021/06/12 11:38:58;;;;;;;9.76;0.90;;;;;;;29.37;35.15;99713.31;1994508;81;20780;-83
2021/06/12 11:42:01;;;;;;;2.09;0.30;;;;;;;29.44;34.91;99720.75;1993304;81;20224;-79
2021/06/12 11:45:27;;;;;;;3.65;0.36;;;;;;;29.32;34.64;99712.81;1993419;81;20214;-78
2021/06/12 11:48:37;;;;;;;6.06;0.22;;;;;;;29.41;34.65;99718.28;1999349;81;20259;-81
2021/06/12 11:51:45;;;;;;;1.39;0.20;;;;;;;29.45;34.87;99711.78;1999574;81;20341;-81
2021/06/12 11:54:47;;;;;;;0.59;0.20;;;;;;;29.62;35.86;99705.09;2001212;81;20169;-78
2021/06/12 11:57:52;;;;;;;0.56;0.20;;;;;;;29.70;35.14;99700.00;2000142;81;20209;-80
2021/06/12 12:00:54;;;;;;;5.24;0.30;;;;;;;29.84;35.03;99720.34;1997516;78;20531;-77
2021/06/12 12:04:03;;;;;;;0.47;0.19;;;;;;;29.73;35.52;99714.97;1994656;81;20191;-79
2021/06/12 12:07:08;;;;;;;1.91;0.20;;;;;;;29.63;34.92;99705.97;1994320;81;20182;-78
2021/06/12 12:10:12;;;;;;;4.68;0.30;;;;;;;29.48;35.53;99702.66;1994868;81;20190;-76
2021/06/12 12:13:36;;;;;;;0.65;0.20;;;;;;;29.53;35.24;99699.63;1995370;81;20198;-76
2021/06/12 12:16:40;;;;;;;22.67;2.04;;;;;;;29.15;35.86;99704.25;1998776;78;20638;-80
2021/06/12 12:19:42;;;;;;;1.58;0.30;;;;;;;28.82;36.75;99702.25;2001293;81;20231;-76
2021/06/12 12:22:51;;;;;;;0.50;0.30;;;;;;;28.73;37.35;99704.78;2001648;80;20817;-75
2021/06/12 12:26:10;;;;;;;27.16;1.06;;;;;;;28.81;37.46;99699.72;2000732;81;20287;-76
2021/06/12 12:29:16;;;;;;;14.86;0.60;;;;;;;28.63;37.39;99709.94;1999824;81;21093;-77
2021/06/12 12:32:23;;;;;;;0.46;0.39;;;;;;;28.09;38.22;99714.78;1996194;78;21537;-76
2021/06/12 12:35:26;;;;;;;6.15;0.40;;;;;;;27.92;39.77;99705.31;1998776;81;20218;-76
2021/06/12 12:38:29;;;;;;;0.59;0.40;;;;;;;27.90;39.47;99709.91;1995783;81;20208;-76
2021/06/12 12:41:32;;;;;;;1.42;0.86;;;;;;;27.68;39.60;99702.56;1994594;81;20190;-76
2021/06/12 12:44:35;;;;;;;0.82;0.40;;;;;;;27.39;41.17;99715.22;1994610;81;20202;-78
2021/06/12 12:47:37;;;;;;;2.28;0.50;;;;;;;27.00;40.79;99706.28;1998663;78;24602;-79
2021/06/12 12:50:41;;;;;;;2.81;0.40;;;;;;;26.73;41.18;99710.75;2001093;81;20205;-78
2021/06/12 12:53:43;;;;;;;1.30;0.40;;;;;;;26.45;42.77;99717.03;2000934;81;20182;-79
2021/06/12 12:56:52;;;;;;;3.71;0.45;;;;;;;26.33;42.80;99718.63;1999685;81;20412;-78
2021/06/12 12:59:54;;;;;;;1.36;0.60;;;;;;;26.22;43.55;99715.81;2002274;81;20840;-77
2021/06/12 13:03:08;;;;;;;0.98;0.45;;;;;;;25.93;44.56;99717.66;1996553;79;24014;-77
2021/06/12 13:06:30;;;;;;;1.31;0.46;;;;;;;25.81;44.60;99721.06;1998216;81;20227;-77
2021/06/12 13:09:33;;;;;;;1.94;0.40;;;;;;;25.68;44.52;99723.63;1998459;81;20200;-78
2021/06/12 13:12:35;;;;;;;1.05;0.50;;;;;;;25.56;44.67;99727.00;1999851;81;20223;-80
2021/06/12 13:15:40;;;;;;;0.79;0.40;;;;;;;25.46;45.08;99726.69;1998562;78;20992;-78
2021/06/12 13:18:42;;;;;;;1.71;0.39;;;;;;;25.41;45.77;99731.44;2002603;81;20293;-79
2021/06/12 13:21:49;;;;;;;3.63;0.40;;;;;;;25.45;45.97;99726.78;2004060;81;20278;-79
2021/06/12 13:24:56;;;;;;;1.24;0.40;;;;;;;25.45;46.00;99735.63;2003610;81;20289;-78
2021/06/12 13:28:02;;;;;;;0.91;0.40;;;;;;;25.39;45.54;99736.00;2006880;80;20381;-82
2021/06/12 13:31:15;;;;;;;1.11;0.40;;;;;;;25.29;46.12;99735.66;2001042;78;20464;-78
2021/06/12 13:34:42;;;;;;;1.52;0.51;;;;;;;25.18;46.69;99740.78;2000882;81;20323;-78
2021/06/12 13:37:44;;;;;;;2.16;0.60;;;;;;;25.11;47.61;99747.38;1998804;81;20512;-78
2021/06/12 13:40:53;;;;;;;2.51;0.54;;;;;;;25.03;46.95;99744.34;1998910;81;20178;-77
2021/06/12 13:43:55;;;;;;;0.77;0.70;;;;;;;25.03;47.33;99746.13;1998349;81;20251;-76
2021/06/12 13:46:58;;;;;;;5.59;0.60;;;;;;;25.07;47.83;99745.88;2000418;78;22460;-80
2021/06/12 13:50:02;;;;;;;2.64;0.50;;;;;;;25.14;47.14;99741.91;2002445;81;20181;-77
2021/06/12 13:53:05;;;;;;;0.60;0.60;;;;;;;25.16;46.43;99755.97;2003066;81;20676;-77
2021/06/12 13:56:15;;;;;;;1.14;0.49;;;;;;;25.21;46.45;99745.06;2003645;81;20304;-77
2021/06/12 13:59:19;;;;;;;2.55;0.60;;;;;;;25.30;46.65;99753.34;2004751;81;20197;-78
2021/06/12 14:02:22;;;;;;;4.00;0.50;;;;;;;25.37;47.14;99745.88;2001489;78;23765;-84
2021/06/12 14:05:24;;;;;;;4.89;0.70;;;;;;;25.40;47.39;99747.47;1998754;81;20198;-80
2021/06/12 14:08:27;;;;;;;0.50;0.50;;;;;;;25.36;47.15;99748.63;1999737;81;20198;-79
2021/06/12 14:11:30;;;;;;;0.96;0.55;;;;;;;25.29;47.67;99748.97;2000695;81;20665;-76
2021/06/12 14:14:33;;;;;;;1.24;0.60;;;;;;;25.34;47.42;99746.06;1997752;81;20198;-76
2021/06/12 14:17:37;;;;;;;2.40;0.60;;;;;;;25.39;47.97;99745.78;2000658;80;21201;-80
2021/06/12 14:20:40;;;;;;;5.70;0.70;;;;;;;25.49;48.26;99742.47;2003686;81;20310;-78
2021/06/12 14:23:42;;;;;;;1.94;0.60;;;;;;;25.56;47.93;99742.97;2003765;81;20201;-78
2021/06/12 14:26:51;;;;;;;1.54;0.70;;;;;;;25.85;47.77;99744.75;2004320;81;20729;-78
2021/06/12 14:29:54;;;;;;;3.46;1.76;;;;;;;26.27;46.63;99743.00;2003152;81;20275;-80
2021/06/12 14:32:56;;;;;;;3.79;1.16;;;;;;;26.59;45.54;99743.63;1995758;78;23839;-77
2021/06/12 14:35:59;;;;;;;6.75;0.80;;;;;;;26.75;44.87;99746.13;1997106;81;20187;-78
2021/06/12 14:39:03;;;;;;;5.35;0.74;;;;;;;26.86;44.59;99750.78;1997019;81;20204;-77
2021/06/12 14:42:06;;;;;;;0.91;0.80;;;;;;;26.66;44.73;99750.25;1996842;81;20322;-77